sensor_id;sensor_type;location;lat;lon;timestamp;P1;durP1;ratioP1;P2;durP2;ratioP2
45392;SDS011;31129;44.810;10.334;2023-12-28T00:00:40;59.15;;;36.80;;
45392;SDS011;31129;44.810;10.334;2023-12-28T00:03:05;53.90;;;36.55;;
45392;SDS011;31129;44.810;10.334;2023-12-28T00:05:30;54.20;;;34.38;;
45392;SDS011;31129;44.810;10.334;2023-12-28T00:07:56;56.97;;;35.45;;
45392;SDS011;31129;44.810;10.334;2023-12-28T00:10:26;59.20;;;35.50;;
45392;SDS011;31129;44.810;10.334;2023-12-28T00:12:53;54.90;;;35.50;;
45392;SDS011;31129;44.810;10.334;2023-12-28T00:15:19;59.85;;;36.30;;
45392;SDS011;31129;44.810;10.334;2023-12-28T00:17:44;57.50;;;36.83;;
45392;SDS011;31129;44.810;10.334;2023-12-28T00:20:10;55.97;;;35.80;;
45392;SDS011;31129;44.810;10.334;2023-12-28T00:22:37;51.58;;;36.17;;
45392;SDS011;31129;44.810;10.334;2023-12-28T00:25:03;55.67;;;34.85;;
45392;SDS011;31129;44.810;10.334;2023-12-28T00:27:29;60.35;;;35.50;;
45392;SDS011;31129;44.810;10.334;2023-12-28T00:29:54;52.15;;;36.10;;
45392;SDS011;31129;44.810;10.334;2023-12-28T00:32:20;52.22;;;36.05;;
45392;SDS011;31129;44.810;10.334;2023-12-28T00:34:45;56.40;;;36.50;;
45392;SDS011;31129;44.810;10.334;2023-12-28T00:37:11;62.05;;;37.80;;
45392;SDS011;31129;44.810;10.334;2023-12-28T00:39:36;51.15;;;36.40;;
45392;SDS011;31129;44.810;10.334;2023-12-28T00:42:03;59.47;;;35.53;;
45392;SDS011;31129;44.810;10.334;2023-12-28T00:44:29;61.05;;;37.17;;
45392;SDS011;31129;44.810;10.334;2023-12-28T00:46:54;53.40;;;34.72;;
45392;SDS011;31129;44.810;10.334;2023-12-28T00:49:20;64.18;;;36.95;;
45392;SDS011;31129;44.810;10.334;2023-12-28T00:51:45;56.53;;;35.25;;
45392;SDS011;31129;44.810;10.334;2023-12-28T00:54:11;62.38;;;38.25;;
45392;SDS011;31129;44.810;10.334;2023-12-28T00:56:36;57.05;;;35.63;;
45392;SDS011;31129;44.810;10.334;2023-12-28T00:59:02;54.88;;;36.72;;
45392;SDS011;31129;44.810;10.334;2023-12-28T01:01:27;66.80;;;36.97;;
45392;SDS011;31129;44.810;10.334;2023-12-28T01:03:56;59.78;;;37.25;;
45392;SDS011;31129;44.810;10.334;2023-12-28T01:06:22;60.92;;;37.05;;
45392;SDS011;31129;44.810;10.334;2023-12-28T01:08:47;64.85;;;37.05;;
45392;SDS011;31129;44.810;10.334;2023-12-28T01:11:13;53.60;;;36.78;;
45392;SDS011;31129;44.810;10.334;2023-12-28T01:13:39;56.42;;;37.00;;
45392;SDS011;31129;44.810;10.334;2023-12-28T01:16:05;59.58;;;35.20;;
45392;SDS011;31129;44.810;10.334;2023-12-28T01:18:32;56.70;;;36.75;;
45392;SDS011;31129;44.810;10.334;2023-12-28T01:20:58;56.88;;;35.80;;
45392;SDS011;31129;44.810;10.334;2023-12-28T01:23:23;52.47;;;35.90;;
45392;SDS011;31129;44.810;10.334;2023-12-28T01:25:49;58.80;;;35.50;;
45392;SDS011;31129;44.810;10.334;2023-12-28T01:28:14;62.05;;;35.33;;
45392;SDS011;31129;44.810;10.334;2023-12-28T01:30:41;55.83;;;34.45;;
45392;SDS011;31129;44.810;10.334;2023-12-28T01:33:06;55.85;;;35.92;;
45392;SDS011;31129;44.810;10.334;2023-12-28T01:35:32;66.47;;;35.38;;
45392;SDS011;31129;44.810;10.334;2023-12-28T01:37:57;56.70;;;35.17;;
45392;SDS011;31129;44.810;10.334;2023-12-28T01:40:25;58.85;;;36.95;;
45392;SDS011;31129;44.810;10.334;2023-12-28T01:42:52;58.25;;;35.17;;
45392;SDS011;31129;44.810;10.334;2023-12-28T01:45:17;55.95;;;36.88;;
45392;SDS011;31129;44.810;10.334;2023-12-28T01:47:43;52.42;;;35.03;;
45392;SDS011;31129;44.810;10.334;2023-12-28T01:50:08;58.13;;;35.60;;
45392;SDS011;31129;44.810;10.334;2023-12-28T01:52:34;59.53;;;36.67;;
45392;SDS011;31129;44.810;10.334;2023-12-28T01:55:00;55.58;;;37.28;;
45392;SDS011;31129;44.810;10.334;2023-12-28T01:57:26;52.80;;;36.05;;
45392;SDS011;31129;44.810;10.334;2023-12-28T01:59:52;67.53;;;37.20;;
45392;SDS011;31129;44.810;10.334;2023-12-28T02:02:18;53.47;;;35.38;;
45392;SDS011;31129;44.810;10.334;2023-12-28T02:04:44;65.47;;;38.10;;
45392;SDS011;31129;44.810;10.334;2023-12-28T02:07:10;54.30;;;36.47;;
45392;SDS011;31129;44.810;10.334;2023-12-28T02:09:36;64.20;;;37.63;;
45392;SDS011;31129;44.810;10.334;2023-12-28T02:12:01;60.10;;;37.00;;
45392;SDS011;31129;44.810;10.334;2023-12-28T02:14:27;60.67;;;37.35;;
45392;SDS011;31129;44.810;10.334;2023-12-28T02:17:13;60.00;;;36.63;;
45392;SDS011;31129;44.810;10.334;2023-12-28T02:22:14;60.63;;;36.55;;
45392;SDS011;31129;44.810;10.334;2023-12-28T02:27:22;58.20;;;38.03;;
45392;SDS011;31129;44.810;10.334;2023-12-28T02:29:48;64.05;;;38.55;;
45392;SDS011;31129;44.810;10.334;2023-12-28T02:32:13;61.53;;;38.45;;
45392;SDS011;31129;44.810;10.334;2023-12-28T02:34:42;55.80;;;36.97;;
45392;SDS011;31129;44.810;10.334;2023-12-28T02:37:10;62.00;;;38.45;;
45392;SDS011;31129;44.810;10.334;2023-12-28T02:39:38;62.53;;;38.22;;
45392;SDS011;31129;44.810;10.334;2023-12-28T02:42:05;56.58;;;37.58;;
45392;SDS011;31129;44.810;10.334;2023-12-28T02:44:31;60.38;;;38.10;;
45392;SDS011;31129;44.810;10.334;2023-12-28T02:46:56;59.10;;;36.50;;
45392;SDS011;31129;44.810;10.334;2023-12-28T02:49:21;63.33;;;37.75;;
45392;SDS011;31129;44.810;10.334;2023-12-28T02:51:48;58.83;;;37.28;;
45392;SDS011;31129;44.810;10.334;2023-12-28T02:54:14;59.55;;;36.00;;
45392;SDS011;31129;44.810;10.334;2023-12-28T02:56:40;60.03;;;37.78;;
45392;SDS011;31129;44.810;10.334;2023-12-28T02:59:06;57.50;;;37.08;;
45392;SDS011;31129;44.810;10.334;2023-12-28T03:01:32;64.75;;;38.08;;
45392;SDS011;31129;44.810;10.334;2023-12-28T03:03:57;60.58;;;37.65;;
45392;SDS011;31129;44.810;10.334;2023-12-28T03:06:23;65.43;;;38.35;;
45392;SDS011;31129;44.810;10.334;2023-12-28T03:08:48;57.85;;;37.30;;
45392;SDS011;31129;44.810;10.334;2023-12-28T03:11:14;58.53;;;37.38;;
45392;SDS011;31129;44.810;10.334;2023-12-28T03:13:40;61.63;;;36.35;;
45392;SDS011;31129;44.810;10.334;2023-12-28T03:16:05;64.20;;;38.47;;
45392;SDS011;31129;44.810;10.334;2023-12-28T03:18:31;60.40;;;38.03;;
45392;SDS011;31129;44.810;10.334;2023-12-28T03:20:56;60.03;;;38.35;;
45392;SDS011;31129;44.810;10.334;2023-12-28T03:23:22;59.50;;;38.03;;
45392;SDS011;31129;44.810;10.334;2023-12-28T03:25:47;58.25;;;39.38;;
45392;SDS011;31129;44.810;10.334;2023-12-28T03:28:13;61.15;;;37.92;;
45392;SDS011;31129;44.810;10.334;2023-12-28T03:30:39;69.32;;;37.85;;
45392;SDS011;31129;44.810;10.334;2023-12-28T03:33:06;59.25;;;37.92;;
45392;SDS011;31129;44.810;10.334;2023-12-28T03:35:31;65.82;;;37.70;;
45392;SDS011;31129;44.810;10.334;2023-12-28T03:37:57;63.92;;;38.10;;
45392;SDS011;31129;44.810;10.334;2023-12-28T03:40:22;65.00;;;39.47;;
45392;SDS011;31129;44.810;10.334;2023-12-28T03:42:50;63.37;;;40.07;;
45392;SDS011;31129;44.810;10.334;2023-12-28T03:45:15;61.83;;;40.45;;
45392;SDS011;31129;44.810;10.334;2023-12-28T03:47:41;66.75;;;39.42;;
45392;SDS011;31129;44.810;10.334;2023-12-28T03:50:06;55.10;;;39.17;;
45392;SDS011;31129;44.810;10.334;2023-12-28T03:52:33;61.80;;;38.90;;
45392;SDS011;31129;44.810;10.334;2023-12-28T03:54:58;60.90;;;39.05;;
45392;SDS011;31129;44.810;10.334;2023-12-28T03:57:25;63.55;;;40.53;;
45392;SDS011;31129;44.810;10.334;2023-12-28T03:59:50;61.30;;;39.83;;
45392;SDS011;31129;44.810;10.334;2023-12-28T04:02:16;60.30;;;38.80;;
45392;SDS011;31129;44.810;10.334;2023-12-28T04:04:41;66.80;;;39.58;;
45392;SDS011;31129;44.810;10.334;2023-12-28T04:07:07;62.58;;;39.72;;
45392;SDS011;31129;44.810;10.334;2023-12-28T04:09:33;60.38;;;38.55;;
45392;SDS011;31129;44.810;10.334;2023-12-28T04:11:59;59.30;;;38.20;;
45392;SDS011;31129;44.810;10.334;2023-12-28T04:14:25;56.20;;;39.28;;
45392;SDS011;31129;44.810;10.334;2023-12-28T04:16:51;56.25;;;37.10;;
45392;SDS011;31129;44.810;10.334;2023-12-28T04:19:16;69.32;;;38.22;;
45392;SDS011;31129;44.810;10.334;2023-12-28T04:21:45;62.30;;;38.50;;
45392;SDS011;31129;44.810;10.334;2023-12-28T04:24:10;56.97;;;39.15;;
45392;SDS011;31129;44.810;10.334;2023-12-28T04:26:36;61.22;;;39.10;;
45392;SDS011;31129;44.810;10.334;2023-12-28T04:29:02;62.05;;;37.80;;
45392;SDS011;31129;44.810;10.334;2023-12-28T04:31:27;55.78;;;36.50;;
45392;SDS011;31129;44.810;10.334;2023-12-28T04:33:53;63.25;;;38.38;;
45392;SDS011;31129;44.810;10.334;2023-12-28T04:36:18;66.93;;;39.58;;
45392;SDS011;31129;44.810;10.334;2023-12-28T04:38:44;61.67;;;38.20;;
45392;SDS011;31129;44.810;10.334;2023-12-28T04:41:10;59.35;;;37.55;;
45392;SDS011;31129;44.810;10.334;2023-12-28T04:43:36;60.25;;;38.30;;
45392;SDS011;31129;44.810;10.334;2023-12-28T04:46:04;57.30;;;38.45;;
45392;SDS011;31129;44.810;10.334;2023-12-28T04:48:31;62.97;;;41.55;;
45392;SDS011;31129;44.810;10.334;2023-12-28T04:50:57;59.75;;;39.58;;
45392;SDS011;31129;44.810;10.334;2023-12-28T04:53:24;62.75;;;38.00;;
45392;SDS011;31129;44.810;10.334;2023-12-28T04:55:49;59.67;;;39.25;;
45392;SDS011;31129;44.810;10.334;2023-12-28T04:58:14;72.10;;;42.08;;
45392;SDS011;31129;44.810;10.334;2023-12-28T05:00:40;68.40;;;41.97;;
45392;SDS011;31129;44.810;10.334;2023-12-28T05:03:06;68.93;;;41.17;;
45392;SDS011;31129;44.810;10.334;2023-12-28T05:05:31;70.03;;;40.92;;
45392;SDS011;31129;44.810;10.334;2023-12-28T05:07:58;64.15;;;42.10;;
45392;SDS011;31129;44.810;10.334;2023-12-28T05:10:23;66.35;;;43.10;;
45392;SDS011;31129;44.810;10.334;2023-12-28T05:12:49;65.07;;;42.30;;
45392;SDS011;31129;44.810;10.334;2023-12-28T05:15:14;64.53;;;43.20;;
45392;SDS011;31129;44.810;10.334;2023-12-28T05:17:40;66.82;;;42.60;;
45392;SDS011;31129;44.810;10.334;2023-12-28T05:20:06;69.25;;;44.08;;
45392;SDS011;31129;44.810;10.334;2023-12-28T05:22:32;70.15;;;43.70;;
45392;SDS011;31129;44.810;10.334;2023-12-28T05:24:57;63.83;;;42.95;;
45392;SDS011;31129;44.810;10.334;2023-12-28T05:27:23;69.10;;;43.17;;
45392;SDS011;31129;44.810;10.334;2023-12-28T05:29:48;76.68;;;46.75;;
45392;SDS011;31129;44.810;10.334;2023-12-28T05:32:14;76.05;;;48.72;;
45392;SDS011;31129;44.810;10.334;2023-12-28T05:34:39;72.05;;;46.10;;
45392;SDS011;31129;44.810;10.334;2023-12-28T05:37:05;72.07;;;45.78;;
45392;SDS011;31129;44.810;10.334;2023-12-28T05:39:30;79.20;;;46.50;;
45392;SDS011;31129;44.810;10.334;2023-12-28T05:41:56;80.40;;;47.97;;
45392;SDS011;31129;44.810;10.334;2023-12-28T05:44:21;72.72;;;45.15;;
45392;SDS011;31129;44.810;10.334;2023-12-28T05:46:47;73.82;;;45.35;;
45392;SDS011;31129;44.810;10.334;2023-12-28T05:49:12;72.47;;;45.67;;
45392;SDS011;31129;44.810;10.334;2023-12-28T05:51:38;72.70;;;45.72;;
45392;SDS011;31129;44.810;10.334;2023-12-28T05:54:07;75.55;;;45.38;;
45392;SDS011;31129;44.810;10.334;2023-12-28T05:56:33;74.00;;;44.58;;
45392;SDS011;31129;44.810;10.334;2023-12-28T05:58:59;69.57;;;43.75;;
45392;SDS011;31129;44.810;10.334;2023-12-28T06:01:25;74.75;;;44.53;;
45392;SDS011;31129;44.810;10.334;2023-12-28T06:03:51;72.07;;;44.42;;
45392;SDS011;31129;44.810;10.334;2023-12-28T06:06:18;71.55;;;44.97;;
45392;SDS011;31129;44.810;10.334;2023-12-28T06:08:44;75.38;;;43.72;;
45392;SDS011;31129;44.810;10.334;2023-12-28T06:11:09;72.60;;;46.53;;
45392;SDS011;31129;44.810;10.334;2023-12-28T06:13:35;76.43;;;44.38;;
45392;SDS011;31129;44.810;10.334;2023-12-28T06:16:00;66.68;;;45.17;;
45392;SDS011;31129;44.810;10.334;2023-12-28T06:18:26;70.90;;;42.63;;
45392;SDS011;31129;44.810;10.334;2023-12-28T06:20:51;79.97;;;46.63;;
45392;SDS011;31129;44.810;10.334;2023-12-28T06:23:17;75.47;;;46.17;;
45392;SDS011;31129;44.810;10.334;2023-12-28T06:25:42;72.13;;;43.88;;
45392;SDS011;31129;44.810;10.334;2023-12-28T06:28:08;77.47;;;42.58;;
45392;SDS011;31129;44.810;10.334;2023-12-28T06:30:33;68.43;;;44.13;;
45392;SDS011;31129;44.810;10.334;2023-12-28T06:32:59;70.30;;;44.85;;
45392;SDS011;31129;44.810;10.334;2023-12-28T06:35:24;69.97;;;44.50;;
45392;SDS011;31129;44.810;10.334;2023-12-28T06:37:50;75.30;;;42.58;;
45392;SDS011;31129;44.810;10.334;2023-12-28T06:40:15;72.60;;;41.88;;
45392;SDS011;31129;44.810;10.334;2023-12-28T06:42:41;66.30;;;40.88;;
45392;SDS011;31129;44.810;10.334;2023-12-28T06:45:08;64.35;;;41.95;;
45392;SDS011;31129;44.810;10.334;2023-12-28T06:47:34;69.78;;;41.58;;
45392;SDS011;31129;44.810;10.334;2023-12-28T06:50:00;65.72;;;39.45;;
45392;SDS011;31129;44.810;10.334;2023-12-28T06:52:25;62.92;;;37.92;;
45392;SDS011;31129;44.810;10.334;2023-12-28T06:54:51;59.22;;;39.22;;
45392;SDS011;31129;44.810;10.334;2023-12-28T06:57:18;68.00;;;40.40;;
45392;SDS011;31129;44.810;10.334;2023-12-28T06:59:43;66.50;;;38.50;;
45392;SDS011;31129;44.810;10.334;2023-12-28T07:02:09;65.40;;;39.00;;
45392;SDS011;31129;44.810;10.334;2023-12-28T07:04:34;61.13;;;38.00;;
45392;SDS011;31129;44.810;10.334;2023-12-28T07:07:00;57.25;;;37.72;;
45392;SDS011;31129;44.810;10.334;2023-12-28T07:09:25;50.90;;;34.33;;
45392;SDS011;31129;44.810;10.334;2023-12-28T07:11:51;61.95;;;34.67;;
45392;SDS011;31129;44.810;10.334;2023-12-28T07:14:16;53.63;;;35.42;;
45392;SDS011;31129;44.810;10.334;2023-12-28T07:16:42;57.63;;;35.92;;
45392;SDS011;31129;44.810;10.334;2023-12-28T07:19:07;52.75;;;35.95;;
45392;SDS011;31129;44.810;10.334;2023-12-28T07:21:34;53.88;;;33.22;;
45392;SDS011;31129;44.810;10.334;2023-12-28T07:23:59;52.33;;;34.50;;
45392;SDS011;31129;44.810;10.334;2023-12-28T07:26:25;57.85;;;34.90;;
45392;SDS011;31129;44.810;10.334;2023-12-28T07:28:50;51.42;;;36.42;;
45392;SDS011;31129;44.810;10.334;2023-12-28T07:31:23;56.25;;;33.28;;
45392;SDS011;31129;44.810;10.334;2023-12-28T07:33:52;49.90;;;33.55;;
45392;SDS011;31129;44.810;10.334;2023-12-28T07:36:18;57.55;;;37.63;;
45392;SDS011;31129;44.810;10.334;2023-12-28T07:38:44;58.58;;;37.83;;
45392;SDS011;31129;44.810;10.334;2023-12-28T07:44:06;62.97;;;40.08;;
45392;SDS011;31129;44.810;10.334;2023-12-28T07:46:31;64.13;;;39.78;;
45392;SDS011;31129;44.810;10.334;2023-12-28T07:48:57;71.43;;;40.38;;
45392;SDS011;31129;44.810;10.334;2023-12-28T07:51:22;62.90;;;38.72;;
45392;SDS011;31129;44.810;10.334;2023-12-28T07:53:48;64.00;;;40.80;;
45392;SDS011;31129;44.810;10.334;2023-12-28T07:56:13;63.95;;;39.13;;
45392;SDS011;31129;44.810;10.334;2023-12-28T07:58:39;65.78;;;41.25;;
45392;SDS011;31129;44.810;10.334;2023-12-28T08:01:09;69.68;;;42.53;;
45392;SDS011;31129;44.810;10.334;2023-12-28T08:03:37;70.18;;;43.35;;
45392;SDS011;31129;44.810;10.334;2023-12-28T08:06:03;68.43;;;44.47;;
45392;SDS011;31129;44.810;10.334;2023-12-28T08:08:29;68.22;;;42.65;;
45392;SDS011;31129;44.810;10.334;2023-12-28T08:10:54;77.18;;;47.45;;
45392;SDS011;31129;44.810;10.334;2023-12-28T08:13:20;56.85;;;37.95;;
45392;SDS011;31129;44.810;10.334;2023-12-28T08:15:45;73.38;;;44.13;;
45392;SDS011;31129;44.810;10.334;2023-12-28T08:18:11;65.90;;;42.80;;
45392;SDS011;31129;44.810;10.334;2023-12-28T08:20:37;64.03;;;42.30;;
45392;SDS011;31129;44.810;10.334;2023-12-28T08:23:02;66.53;;;43.00;;
45392;SDS011;31129;44.810;10.334;2023-12-28T08:25:28;74.68;;;45.30;;
45392;SDS011;31129;44.810;10.334;2023-12-28T08:27:53;69.25;;;43.20;;
45392;SDS011;31129;44.810;10.334;2023-12-28T08:30:19;74.55;;;45.75;;
45392;SDS011;31129;44.810;10.334;2023-12-28T08:32:44;69.57;;;44.85;;
45392;SDS011;31129;44.810;10.334;2023-12-28T08:35:10;72.10;;;47.40;;
45392;SDS011;31129;44.810;10.334;2023-12-28T08:37:36;73.72;;;46.85;;
45392;SDS011;31129;44.810;10.334;2023-12-28T08:40:01;77.05;;;47.38;;
45392;SDS011;31129;44.810;10.334;2023-12-28T08:42:27;74.10;;;47.63;;
45392;SDS011;31129;44.810;10.334;2023-12-28T08:44:52;72.72;;;47.88;;
45392;SDS011;31129;44.810;10.334;2023-12-28T08:47:18;73.70;;;47.10;;
45392;SDS011;31129;44.810;10.334;2023-12-28T08:49:43;76.03;;;48.63;;
45392;SDS011;31129;44.810;10.334;2023-12-28T08:52:09;79.00;;;49.05;;
45392;SDS011;31129;44.810;10.334;2023-12-28T08:54:35;72.03;;;48.97;;
45392;SDS011;31129;44.810;10.334;2023-12-28T08:57:00;85.10;;;49.85;;
45392;SDS011;31129;44.810;10.334;2023-12-28T08:59:26;74.30;;;47.80;;
45392;SDS011;31129;44.810;10.334;2023-12-28T09:01:54;75.22;;;50.97;;
45392;SDS011;31129;44.810;10.334;2023-12-28T09:04:20;81.43;;;49.28;;
45392;SDS011;31129;44.810;10.334;2023-12-28T09:06:45;75.93;;;50.75;;
45392;SDS011;31129;44.810;10.334;2023-12-28T09:09:11;76.82;;;51.70;;
45392;SDS011;31129;44.810;10.334;2023-12-28T09:11:37;83.10;;;53.72;;
45392;SDS011;31129;44.810;10.334;2023-12-28T09:14:03;82.50;;;52.60;;
45392;SDS011;31129;44.810;10.334;2023-12-28T09:16:28;85.70;;;51.75;;
45392;SDS011;31129;44.810;10.334;2023-12-28T09:18:53;85.93;;;52.28;;
45392;SDS011;31129;44.810;10.334;2023-12-28T09:21:19;82.88;;;53.60;;
45392;SDS011;31129;44.810;10.334;2023-12-28T09:23:46;83.13;;;52.70;;
45392;SDS011;31129;44.810;10.334;2023-12-28T09:26:11;82.15;;;51.30;;
45392;SDS011;31129;44.810;10.334;2023-12-28T09:28:49;83.45;;;51.50;;
45392;SDS011;31129;44.810;10.334;2023-12-28T09:31:14;81.88;;;54.53;;
45392;SDS011;31129;44.810;10.334;2023-12-28T09:33:40;83.68;;;53.03;;
45392;SDS011;31129;44.810;10.334;2023-12-28T09:36:05;87.15;;;58.25;;
45392;SDS011;31129;44.810;10.334;2023-12-28T09:38:31;86.05;;;56.78;;
45392;SDS011;31129;44.810;10.334;2023-12-28T09:40:57;82.40;;;52.63;;
45392;SDS011;31129;44.810;10.334;2023-12-28T09:43:33;76.13;;;51.92;;
45392;SDS011;31129;44.810;10.334;2023-12-28T09:46:06;84.97;;;54.13;;
45392;SDS011;31129;44.810;10.334;2023-12-28T09:48:39;82.22;;;53.67;;
45392;SDS011;31129;44.810;10.334;2023-12-28T09:51:05;87.00;;;55.20;;
45392;SDS011;31129;44.810;10.334;2023-12-28T09:53:31;88.43;;;56.88;;
45392;SDS011;31129;44.810;10.334;2023-12-28T09:55:57;90.90;;;57.47;;
45392;SDS011;31129;44.810;10.334;2023-12-28T09:58:22;90.15;;;56.20;;
45392;SDS011;31129;44.810;10.334;2023-12-28T10:00:48;85.03;;;53.60;;
45392;SDS011;31129;44.810;10.334;2023-12-28T10:03:15;85.47;;;54.00;;
45392;SDS011;31129;44.810;10.334;2023-12-28T10:05:42;85.28;;;55.20;;
45392;SDS011;31129;44.810;10.334;2023-12-28T10:08:10;89.40;;;56.47;;
45392;SDS011;31129;44.810;10.334;2023-12-28T10:10:37;83.10;;;54.95;;
45392;SDS011;31129;44.810;10.334;2023-12-28T10:13:03;83.78;;;56.00;;
45392;SDS011;31129;44.810;10.334;2023-12-28T10:15:30;81.55;;;54.25;;
45392;SDS011;31129;44.810;10.334;2023-12-28T10:17:56;81.75;;;56.13;;
45392;SDS011;31129;44.810;10.334;2023-12-28T10:20:21;83.93;;;56.45;;
45392;SDS011;31129;44.810;10.334;2023-12-28T10:22:47;85.20;;;55.83;;
45392;SDS011;31129;44.810;10.334;2023-12-28T10:25:12;86.78;;;56.70;;
45392;SDS011;31129;44.810;10.334;2023-12-28T10:27:41;82.53;;;53.75;;
45392;SDS011;31129;44.810;10.334;2023-12-28T10:30:07;89.40;;;54.90;;
45392;SDS011;31129;44.810;10.334;2023-12-28T10:32:35;88.28;;;55.72;;
45392;SDS011;31129;44.810;10.334;2023-12-28T10:35:01;91.82;;;56.25;;
45392;SDS011;31129;44.810;10.334;2023-12-28T10:37:27;81.50;;;53.28;;
45392;SDS011;31129;44.810;10.334;2023-12-28T10:39:57;82.50;;;54.53;;
45392;SDS011;31129;44.810;10.334;2023-12-28T10:42:28;84.05;;;54.47;;
45392;SDS011;31129;44.810;10.334;2023-12-28T10:45:04;82.45;;;54.08;;
45392;SDS011;31129;44.810;10.334;2023-12-28T10:47:36;87.05;;;53.83;;
45392;SDS011;31129;44.810;10.334;2023-12-28T10:50:03;76.72;;;52.40;;
45392;SDS011;31129;44.810;10.334;2023-12-28T10:52:30;77.20;;;52.53;;
45392;SDS011;31129;44.810;10.334;2023-12-28T10:57:47;74.15;;;52.05;;
45392;SDS011;31129;44.810;10.334;2023-12-28T11:00:26;81.13;;;50.15;;
45392;SDS011;31129;44.810;10.334;2023-12-28T11:02:57;83.40;;;50.58;;
45392;SDS011;31129;44.810;10.334;2023-12-28T11:05:27;72.72;;;48.92;;
45392;SDS011;31129;44.810;10.334;2023-12-28T11:07:55;81.85;;;51.92;;
45392;SDS011;31129;44.810;10.334;2023-12-28T11:10:26;76.47;;;49.63;;
45392;SDS011;31129;44.810;10.334;2023-12-28T11:12:54;82.00;;;51.67;;
45392;SDS011;31129;44.810;10.334;2023-12-28T11:15:21;75.07;;;50.80;;
45392;SDS011;31129;44.810;10.334;2023-12-28T11:17:48;77.63;;;50.22;;
45392;SDS011;31129;44.810;10.334;2023-12-28T11:20:14;80.97;;;50.75;;
45392;SDS011;31129;44.810;10.334;2023-12-28T11:22:40;73.72;;;49.08;;
45392;SDS011;31129;44.810;10.334;2023-12-28T11:25:14;74.13;;;47.33;;
45392;SDS011;31129;44.810;10.334;2023-12-28T11:27:43;73.18;;;49.63;;
45392;SDS011;31129;44.810;10.334;2023-12-28T11:30:12;71.93;;;49.33;;
45392;SDS011;31129;44.810;10.334;2023-12-28T11:32:42;82.78;;;51.53;;
45392;SDS011;31129;44.810;10.334;2023-12-28T11:35:10;81.72;;;52.22;;
45392;SDS011;31129;44.810;10.334;2023-12-28T11:37:40;74.63;;;51.08;;
45392;SDS011;31129;44.810;10.334;2023-12-28T11:40:10;87.38;;;52.63;;
45392;SDS011;31129;44.810;10.334;2023-12-28T11:42:37;75.30;;;51.88;;
45392;SDS011;31129;44.810;10.334;2023-12-28T11:45:13;74.75;;;52.63;;
45392;SDS011;31129;44.810;10.334;2023-12-28T11:50:07;75.28;;;51.35;;
45392;SDS011;31129;44.810;10.334;2023-12-28T11:52:33;76.75;;;52.50;;
45392;SDS011;31129;44.810;10.334;2023-12-28T11:54:59;78.93;;;52.83;;
45392;SDS011;31129;44.810;10.334;2023-12-28T11:57:25;72.55;;;50.60;;
45392;SDS011;31129;44.810;10.334;2023-12-28T12:00:01;79.18;;;53.08;;
45392;SDS011;31129;44.810;10.334;2023-12-28T12:02:30;81.95;;;53.78;;
45392;SDS011;31129;44.810;10.334;2023-12-28T12:04:55;87.20;;;56.80;;
45392;SDS011;31129;44.810;10.334;2023-12-28T12:07:27;82.95;;;55.13;;
45392;SDS011;31129;44.810;10.334;2023-12-28T12:09:58;79.57;;;54.42;;
45392;SDS011;31129;44.810;10.334;2023-12-28T12:12:25;82.20;;;54.97;;
45392;SDS011;31129;44.810;10.334;2023-12-28T12:14:50;80.05;;;55.65;;
45392;SDS011;31129;44.810;10.334;2023-12-28T12:17:17;75.20;;;54.65;;
45392;SDS011;31129;44.810;10.334;2023-12-28T12:19:42;86.30;;;55.47;;
45392;SDS011;31129;44.810;10.334;2023-12-28T12:22:08;80.82;;;54.15;;
45392;SDS011;31129;44.810;10.334;2023-12-28T12:24:33;80.50;;;53.00;;
45392;SDS011;31129;44.810;10.334;2023-12-28T12:27:00;80.13;;;54.38;;
45392;SDS011;31129;44.810;10.334;2023-12-28T12:29:29;89.97;;;57.10;;
45392;SDS011;31129;44.810;10.334;2023-12-28T12:31:55;78.32;;;56.17;;
45392;SDS011;31129;44.810;10.334;2023-12-28T12:34:21;84.55;;;56.35;;
45392;SDS011;31129;44.810;10.334;2023-12-28T12:36:46;82.25;;;55.72;;
45392;SDS011;31129;44.810;10.334;2023-12-28T12:39:14;84.65;;;56.60;;
45392;SDS011;31129;44.810;10.334;2023-12-28T12:41:39;81.55;;;56.80;;
45392;SDS011;31129;44.810;10.334;2023-12-28T12:44:05;88.53;;;56.53;;
45392;SDS011;31129;44.810;10.334;2023-12-28T12:46:31;83.00;;;55.88;;
45392;SDS011;31129;44.810;10.334;2023-12-28T12:51:22;81.45;;;57.17;;
45392;SDS011;31129;44.810;10.334;2023-12-28T12:53:48;81.40;;;58.60;;
45392;SDS011;31129;44.810;10.334;2023-12-28T12:56:14;84.97;;;57.35;;
45392;SDS011;31129;44.810;10.334;2023-12-28T12:58:40;85.38;;;56.20;;
45392;SDS011;31129;44.810;10.334;2023-12-28T13:01:09;82.80;;;57.08;;
45392;SDS011;31129;44.810;10.334;2023-12-28T13:03:36;87.15;;;56.88;;
45392;SDS011;31129;44.810;10.334;2023-12-28T13:06:03;80.43;;;57.22;;
45392;SDS011;31129;44.810;10.334;2023-12-28T13:08:29;85.60;;;54.88;;
45392;SDS011;31129;44.810;10.334;2023-12-28T13:10:54;81.57;;;55.90;;
45392;SDS011;31129;44.810;10.334;2023-12-28T13:13:20;83.47;;;55.47;;
45392;SDS011;31129;44.810;10.334;2023-12-28T13:15:45;80.90;;;54.78;;
45392;SDS011;31129;44.810;10.334;2023-12-28T13:18:11;84.70;;;55.20;;
45392;SDS011;31129;44.810;10.334;2023-12-28T13:20:36;84.68;;;56.53;;
45392;SDS011;31129;44.810;10.334;2023-12-28T13:23:02;83.32;;;56.53;;
45392;SDS011;31129;44.810;10.334;2023-12-28T13:25:27;85.78;;;57.75;;
45392;SDS011;31129;44.810;10.334;2023-12-28T13:27:53;82.07;;;55.90;;
45392;SDS011;31129;44.810;10.334;2023-12-28T13:30:18;85.18;;;56.85;;
45392;SDS011;31129;44.810;10.334;2023-12-28T13:32:44;86.40;;;56.13;;
45392;SDS011;31129;44.810;10.334;2023-12-28T13:35:09;85.75;;;57.50;;
45392;SDS011;31129;44.810;10.334;2023-12-28T13:37:35;87.10;;;56.85;;
45392;SDS011;31129;44.810;10.334;2023-12-28T13:40:00;78.05;;;54.83;;
45392;SDS011;31129;44.810;10.334;2023-12-28T13:42:25;79.57;;;56.15;;
45392;SDS011;31129;44.810;10.334;2023-12-28T13:44:52;80.97;;;55.28;;
45392;SDS011;31129;44.810;10.334;2023-12-28T13:47:18;84.80;;;55.05;;
45392;SDS011;31129;44.810;10.334;2023-12-28T13:49:43;84.72;;;56.55;;
45392;SDS011;31129;44.810;10.334;2023-12-28T13:52:09;81.65;;;53.47;;
45392;SDS011;31129;44.810;10.334;2023-12-28T13:54:34;87.80;;;54.40;;
45392;SDS011;31129;44.810;10.334;2023-12-28T13:57:00;84.78;;;53.88;;
45392;SDS011;31129;44.810;10.334;2023-12-28T13:59:25;80.65;;;53.95;;
45392;SDS011;31129;44.810;10.334;2023-12-28T14:01:51;84.18;;;54.58;;
45392;SDS011;31129;44.810;10.334;2023-12-28T14:04:16;84.63;;;55.83;;
45392;SDS011;31129;44.810;10.334;2023-12-28T14:06:42;83.72;;;53.40;;
45392;SDS011;31129;44.810;10.334;2023-12-28T14:09:07;88.03;;;53.22;;
45392;SDS011;31129;44.810;10.334;2023-12-28T14:11:33;81.55;;;52.70;;
45392;SDS011;31129;44.810;10.334;2023-12-28T14:13:59;73.80;;;53.08;;
45392;SDS011;31129;44.810;10.334;2023-12-28T14:16:24;77.55;;;53.85;;
45392;SDS011;31129;44.810;10.334;2023-12-28T14:18:50;80.30;;;53.47;;